sensor_id;sensor_type;location;lat;lon;timestamp;P1;durP1;ratioP1;P2;durP2;ratioP2
62790;SDS011;48830;53.426;10.300;2023-05-03T00:00:33;7.77;;;3.00;;
62790;SDS011;48830;53.426;10.300;2023-05-03T00:02:58;5.63;;;2.90;;
62790;SDS011;48830;53.426;10.300;2023-05-03T00:05:25;5.53;;;2.53;;
62790;SDS011;48830;53.426;10.300;2023-05-03T00:07:50;5.27;;;2.70;;
62790;SDS011;48830;53.426;10.300;2023-05-03T00:10:16;5.30;;;2.70;;
62790;SDS011;48830;53.426;10.300;2023-05-03T00:12:42;6.03;;;2.80;;
62790;SDS011;48830;53.426;10.300;2023-05-03T00:15:08;5.93;;;2.90;;
62790;SDS011;48830;53.426;10.300;2023-05-03T00:17:35;6.20;;;3.40;;
62790;SDS011;48830;53.426;10.300;2023-05-03T00:20:01;7.83;;;2.90;;
62790;SDS011;48830;53.426;10.300;2023-05-03T00:22:28;6.67;;;3.47;;
62790;SDS011;48830;53.426;10.300;2023-05-03T00:24:54;6.43;;;3.10;;
62790;SDS011;48830;53.426;10.300;2023-05-03T00:27:20;7.93;;;3.17;;
62790;SDS011;48830;53.426;10.300;2023-05-03T00:29:49;7.27;;;3.10;;
62790;SDS011;48830;53.426;10.300;2023-05-03T00:32:15;5.90;;;2.90;;
62790;SDS011;48830;53.426;10.300;2023-05-03T00:34:41;6.17;;;2.93;;
62790;SDS011;48830;53.426;10.300;2023-05-03T00:37:06;10.40;;;3.07;;
62790;SDS011;48830;53.426;10.300;2023-05-03T00:39:33;5.00;;;2.80;;
62790;SDS011;48830;53.426;10.300;2023-05-03T00:41:58;5.43;;;2.80;;
62790;SDS011;48830;53.426;10.300;2023-05-03T00:44:25;7.40;;;3.03;;
62790;SDS011;48830;53.426;10.300;2023-05-03T00:46:50;6.77;;;2.60;;
62790;SDS011;48830;53.426;10.300;2023-05-03T00:49:16;6.30;;;2.70;;
62790;SDS011;48830;53.426;10.300;2023-05-03T00:51:42;7.60;;;2.87;;
62790;SDS011;48830;53.426;10.300;2023-05-03T00:54:09;6.90;;;3.20;;
62790;SDS011;48830;53.426;10.300;2023-05-03T00:56:36;5.93;;;2.67;;
62790;SDS011;48830;53.426;10.300;2023-05-03T00:59:02;7.47;;;2.67;;
62790;SDS011;48830;53.426;10.300;2023-05-03T01:01:30;6.53;;;2.90;;
62790;SDS011;48830;53.426;10.300;2023-05-03T01:03:57;5.67;;;3.00;;
62790;SDS011;48830;53.426;10.300;2023-05-03T01:09:04;6.83;;;2.93;;
62790;SDS011;48830;53.426;10.300;2023-05-03T01:14:57;8.70;;;3.30;;
62790;SDS011;48830;53.426;10.300;2023-05-03T01:17:40;6.77;;;2.87;;
62790;SDS011;48830;53.426;10.300;2023-05-03T01:20:16;5.70;;;3.30;;
62790;SDS011;48830;53.426;10.300;2023-05-03T01:22:58;7.33;;;3.47;;
62790;SDS011;48830;53.426;10.300;2023-05-03T01:25:42;6.93;;;3.40;;
62790;SDS011;48830;53.426;10.300;2023-05-03T01:28:08;6.73;;;3.43;;
62790;SDS011;48830;53.426;10.300;2023-05-03T01:30:33;8.27;;;3.87;;
62790;SDS011;48830;53.426;10.300;2023-05-03T01:36:19;8.87;;;3.63;;
62790;SDS011;48830;53.426;10.300;2023-05-03T01:38:50;7.57;;;3.37;;
62790;SDS011;48830;53.426;10.300;2023-05-03T01:41:16;7.37;;;3.57;;
62790;SDS011;48830;53.426;10.300;2023-05-03T01:43:44;7.60;;;3.50;;
62790;SDS011;48830;53.426;10.300;2023-05-03T01:46:12;8.53;;;3.13;;
62790;SDS011;48830;53.426;10.300;2023-05-03T01:48:39;7.07;;;3.47;;
62790;SDS011;48830;53.426;10.300;2023-05-03T01:51:04;9.00;;;3.20;;
62790;SDS011;48830;53.426;10.300;2023-05-03T01:53:30;6.40;;;3.07;;
62790;SDS011;48830;53.426;10.300;2023-05-03T01:55:55;8.40;;;3.93;;
62790;SDS011;48830;53.426;10.300;2023-05-03T01:58:21;6.90;;;3.27;;
62790;SDS011;48830;53.426;10.300;2023-05-03T02:00:46;9.53;;;3.30;;
62790;SDS011;48830;53.426;10.300;2023-05-03T02:03:11;6.60;;;3.13;;
62790;SDS011;48830;53.426;10.300;2023-05-03T02:05:37;8.23;;;3.43;;
62790;SDS011;48830;53.426;10.300;2023-05-03T02:08:02;7.53;;;3.10;;
62790;SDS011;48830;53.426;10.300;2023-05-03T02:10:28;9.00;;;3.77;;
62790;SDS011;48830;53.426;10.300;2023-05-03T02:12:54;7.43;;;3.53;;
62790;SDS011;48830;53.426;10.300;2023-05-03T02:15:19;7.47;;;3.13;;
62790;SDS011;48830;53.426;10.300;2023-05-03T02:17:45;6.30;;;3.03;;
62790;SDS011;48830;53.426;10.300;2023-05-03T02:20:12;6.87;;;3.30;;
62790;SDS011;48830;53.426;10.300;2023-05-03T02:22:37;8.50;;;3.00;;
62790;SDS011;48830;53.426;10.300;2023-05-03T02:25:03;6.63;;;3.30;;
62790;SDS011;48830;53.426;10.300;2023-05-03T02:27:29;6.53;;;3.03;;
62790;SDS011;48830;53.426;10.300;2023-05-03T02:29:54;7.23;;;3.30;;
62790;SDS011;48830;53.426;10.300;2023-05-03T02:32:21;8.27;;;3.53;;
62790;SDS011;48830;53.426;10.300;2023-05-03T02:34:47;6.73;;;3.37;;
62790;SDS011;48830;53.426;10.300;2023-05-03T02:37:16;7.90;;;3.03;;
62790;SDS011;48830;53.426;10.300;2023-05-03T02:39:43;10.07;;;3.73;;
62790;SDS011;48830;53.426;10.300;2023-05-03T02:42:10;7.63;;;3.40;;
62790;SDS011;48830;53.426;10.300;2023-05-03T02:44:36;7.13;;;3.90;;
62790;SDS011;48830;53.426;10.300;2023-05-03T02:47:01;8.73;;;3.67;;
62790;SDS011;48830;53.426;10.300;2023-05-03T02:49:28;6.50;;;3.33;;
62790;SDS011;48830;53.426;10.300;2023-05-03T02:51:53;9.23;;;3.90;;
62790;SDS011;48830;53.426;10.300;2023-05-03T02:54:21;8.07;;;3.50;;
62790;SDS011;48830;53.426;10.300;2023-05-03T02:56:47;9.67;;;3.73;;
62790;SDS011;48830;53.426;10.300;2023-05-03T02:59:12;8.10;;;4.20;;
62790;SDS011;48830;53.426;10.300;2023-05-03T03:01:38;9.10;;;4.03;;
62790;SDS011;48830;53.426;10.300;2023-05-03T03:04:04;9.50;;;4.07;;
62790;SDS011;48830;53.426;10.300;2023-05-03T03:06:30;6.63;;;3.37;;
62790;SDS011;48830;53.426;10.300;2023-05-03T03:08:57;7.70;;;3.50;;
62790;SDS011;48830;53.426;10.300;2023-05-03T03:11:22;9.50;;;4.17;;
62790;SDS011;48830;53.426;10.300;2023-05-03T03:13:48;8.83;;;4.17;;
62790;SDS011;48830;53.426;10.300;2023-05-03T03:16:14;7.43;;;3.63;;
62790;SDS011;48830;53.426;10.300;2023-05-03T03:18:39;7.60;;;4.10;;
62790;SDS011;48830;53.426;10.300;2023-05-03T03:21:06;7.90;;;4.10;;
62790;SDS011;48830;53.426;10.300;2023-05-03T03:23:33;9.37;;;4.07;;
62790;SDS011;48830;53.426;10.300;2023-05-03T03:25:58;7.73;;;4.10;;
62790;SDS011;48830;53.426;10.300;2023-05-03T03:28:24;10.37;;;5.03;;
62790;SDS011;48830;53.426;10.300;2023-05-03T03:30:50;10.03;;;4.53;;
62790;SDS011;48830;53.426;10.300;2023-05-03T03:33:21;10.17;;;4.97;;
62790;SDS011;48830;53.426;10.300;2023-05-03T03:35:46;7.87;;;4.23;;
62790;SDS011;48830;53.426;10.300;2023-05-03T03:38:12;10.60;;;4.83;;
62790;SDS011;48830;53.426;10.300;2023-05-03T03:40:45;7.70;;;4.07;;
62790;SDS011;48830;53.426;10.300;2023-05-03T03:43:10;7.93;;;4.43;;
62790;SDS011;48830;53.426;10.300;2023-05-03T03:45:36;10.03;;;5.00;;
62790;SDS011;48830;53.426;10.300;2023-05-03T03:48:03;8.90;;;4.00;;
62790;SDS011;48830;53.426;10.300;2023-05-03T03:50:30;9.70;;;4.33;;
62790;SDS011;48830;53.426;10.300;2023-05-03T03:52:55;9.47;;;4.23;;
62790;SDS011;48830;53.426;10.300;2023-05-03T03:55:21;9.83;;;4.67;;
62790;SDS011;48830;53.426;10.300;2023-05-03T03:57:49;8.47;;;4.53;;
62790;SDS011;48830;53.426;10.300;2023-05-03T04:00:15;11.13;;;4.70;;
62790;SDS011;48830;53.426;10.300;2023-05-03T04:02:47;9.33;;;4.60;;
62790;SDS011;48830;53.426;10.300;2023-05-03T04:05:16;10.53;;;5.47;;
62790;SDS011;48830;53.426;10.300;2023-05-03T04:07:43;12.13;;;4.70;;
62790;SDS011;48830;53.426;10.300;2023-05-03T04:10:09;10.27;;;4.80;;
62790;SDS011;48830;53.426;10.300;2023-05-03T04:12:37;8.90;;;5.30;;
62790;SDS011;48830;53.426;10.300;2023-05-03T04:15:03;10.93;;;5.03;;
62790;SDS011;48830;53.426;10.300;2023-05-03T04:17:29;11.30;;;5.07;;
62790;SDS011;48830;53.426;10.300;2023-05-03T04:19:56;9.00;;;5.60;;
62790;SDS011;48830;53.426;10.300;2023-05-03T04:22:21;10.63;;;5.40;;
62790;SDS011;48830;53.426;10.300;2023-05-03T04:24:47;10.43;;;5.27;;
62790;SDS011;48830;53.426;10.300;2023-05-03T04:27:14;12.30;;;5.10;;
62790;SDS011;48830;53.426;10.300;2023-05-03T04:29:40;11.37;;;5.37;;
62790;SDS011;48830;53.426;10.300;2023-05-03T04:32:06;9.10;;;5.63;;
62790;SDS011;48830;53.426;10.300;2023-05-03T04:34:33;8.53;;;5.30;;
62790;SDS011;48830;53.426;10.300;2023-05-03T04:37:01;8.20;;;5.30;;
62790;SDS011;48830;53.426;10.300;2023-05-03T04:39:27;11.50;;;5.03;;
62790;SDS011;48830;53.426;10.300;2023-05-03T04:41:53;12.40;;;5.53;;
62790;SDS011;48830;53.426;10.300;2023-05-03T04:44:18;9.87;;;5.30;;
62790;SDS011;48830;53.426;10.300;2023-05-03T04:46:47;9.00;;;5.53;;
62790;SDS011;48830;53.426;10.300;2023-05-03T04:49:13;10.13;;;5.50;;
62790;SDS011;48830;53.426;10.300;2023-05-03T04:51:39;9.80;;;5.77;;
62790;SDS011;48830;53.426;10.300;2023-05-03T04:54:04;11.17;;;5.43;;
62790;SDS011;48830;53.426;10.300;2023-05-03T04:56:30;10.80;;;5.40;;
62790;SDS011;48830;53.426;10.300;2023-05-03T04:59:06;12.27;;;5.83;;
62790;SDS011;48830;53.426;10.300;2023-05-03T05:01:32;10.40;;;5.37;;
62790;SDS011;48830;53.426;10.300;2023-05-03T05:04:01;9.55;;;5.45;;
62790;SDS011;48830;53.426;10.300;2023-05-03T05:06:33;8.80;;;5.73;;
62790;SDS011;48830;53.426;10.300;2023-05-03T05:08:59;11.50;;;6.03;;
62790;SDS011;48830;53.426;10.300;2023-05-03T05:11:25;10.73;;;5.70;;
62790;SDS011;48830;53.426;10.300;2023-05-03T05:13:51;9.85;;;5.05;;
62790;SDS011;48830;53.426;10.300;2023-05-03T05:16:17;11.77;;;5.77;;
62790;SDS011;48830;53.426;10.300;2023-05-03T05:18:48;9.27;;;5.68;;
62790;SDS011;48830;53.426;10.300;2023-05-03T05:21:15;14.00;;;5.43;;
62790;SDS011;48830;53.426;10.300;2023-05-03T05:23:41;9.70;;;5.82;;
62790;SDS011;48830;53.426;10.300;2023-05-03T05:26:06;12.48;;;5.75;;
62790;SDS011;48830;53.426;10.300;2023-05-03T05:28:32;9.85;;;5.47;;
62790;SDS011;48830;53.426;10.300;2023-05-03T05:30:58;11.60;;;5.50;;
62790;SDS011;48830;53.426;10.300;2023-05-03T05:33:24;9.20;;;4.77;;
62790;SDS011;48830;53.426;10.300;2023-05-03T05:35:50;8.73;;;5.10;;
62790;SDS011;48830;53.426;10.300;2023-05-03T05:38:19;10.90;;;5.10;;
62790;SDS011;48830;53.426;10.300;2023-05-03T05:40:45;10.40;;;5.00;;
62790;SDS011;48830;53.426;10.300;2023-05-03T05:43:10;12.10;;;5.00;;
62790;SDS011;48830;53.426;10.300;2023-05-03T05:45:38;11.38;;;5.15;;
62790;SDS011;48830;53.426;10.300;2023-05-03T05:48:04;12.27;;;5.20;;
62790;SDS011;48830;53.426;10.300;2023-05-03T05:50:30;14.77;;;5.35;;
62790;SDS011;48830;53.426;10.300;2023-05-03T05:53:00;8.93;;;4.65;;
62790;SDS011;48830;53.426;10.300;2023-05-03T05:55:29;8.88;;;4.72;;
62790;SDS011;48830;53.426;10.300;2023-05-03T05:57:56;9.75;;;5.20;;
62790;SDS011;48830;53.426;10.300;2023-05-03T06:00:27;12.68;;;5.55;;
62790;SDS011;48830;53.426;10.300;2023-05-03T06:02:54;12.48;;;5.40;;
62790;SDS011;48830;53.426;10.300;2023-05-03T06:05:20;10.32;;;5.57;;
62790;SDS011;48830;53.426;10.300;2023-05-03T06:07:47;13.88;;;5.82;;
62790;SDS011;48830;53.426;10.300;2023-05-03T06:10:13;13.43;;;6.30;;
62790;SDS011;48830;53.426;10.300;2023-05-03T06:12:43;9.63;;;5.72;;
62790;SDS011;48830;53.426;10.300;2023-05-03T06:15:13;13.18;;;6.25;;
62790;SDS011;48830;53.426;10.300;2023-05-03T06:17:39;12.18;;;6.72;;
62790;SDS011;48830;53.426;10.300;2023-05-03T06:20:04;13.00;;;6.70;;
62790;SDS011;48830;53.426;10.300;2023-05-03T06:22:31;11.27;;;5.88;;
62790;SDS011;48830;53.426;10.300;2023-05-03T06:24:57;13.73;;;6.10;;
62790;SDS011;48830;53.426;10.300;2023-05-03T06:27:23;12.57;;;6.45;;
62790;SDS011;48830;53.426;10.300;2023-05-03T06:29:50;10.43;;;4.85;;
62790;SDS011;48830;53.426;10.300;2023-05-03T06:32:15;8.55;;;4.90;;
62790;SDS011;48830;53.426;10.300;2023-05-03T06:34:43;12.25;;;5.75;;
62790;SDS011;48830;53.426;10.300;2023-05-03T06:37:08;13.35;;;5.03;;
62790;SDS011;48830;53.426;10.300;2023-05-03T06:39:34;8.57;;;4.72;;
62790;SDS011;48830;53.426;10.300;2023-05-03T06:41:59;10.70;;;4.38;;
62790;SDS011;48830;53.426;10.300;2023-05-03T06:44:32;7.25;;;4.30;;
62790;SDS011;48830;53.426;10.300;2023-05-03T06:46:58;10.27;;;4.30;;
62790;SDS011;48830;53.426;10.300;2023-05-03T06:49:23;8.73;;;4.05;;
62790;SDS011;48830;53.426;10.300;2023-05-03T06:51:49;10.48;;;4.60;;
62790;SDS011;48830;53.426;10.300;2023-05-03T06:54:16;8.55;;;4.25;;
62790;SDS011;48830;53.426;10.300;2023-05-03T06:56:41;7.75;;;4.00;;
62790;SDS011;48830;53.426;10.300;2023-05-03T06:59:07;7.35;;;4.18;;
62790;SDS011;48830;53.426;10.300;2023-05-03T07:01:32;10.13;;;4.20;;
62790;SDS011;48830;53.426;10.300;2023-05-03T07:03:59;6.97;;;3.58;;
62790;SDS011;48830;53.426;10.300;2023-05-03T07:06:25;7.60;;;3.10;;
62790;SDS011;48830;53.426;10.300;2023-05-03T07:08:50;9.63;;;3.53;;
62790;SDS011;48830;53.426;10.300;2023-05-03T07:11:17;9.57;;;2.97;;
62790;SDS011;48830;53.426;10.300;2023-05-03T07:13:46;6.85;;;2.95;;
62790;SDS011;48830;53.426;10.300;2023-05-03T07:16:11;10.07;;;3.15;;
62790;SDS011;48830;53.426;10.300;2023-05-03T07:18:37;6.93;;;2.67;;
62790;SDS011;48830;53.426;10.300;2023-05-03T07:21:02;4.88;;;2.65;;
62790;SDS011;48830;53.426;10.300;2023-05-03T07:23:30;5.53;;;2.50;;
62790;SDS011;48830;53.426;10.300;2023-05-03T07:25:56;7.82;;;3.20;;
62790;SDS011;48830;53.426;10.300;2023-05-03T07:28:22;7.75;;;3.42;;
62790;SDS011;48830;53.426;10.300;2023-05-03T07:30:47;8.60;;;3.00;;
62790;SDS011;48830;53.426;10.300;2023-05-03T07:33:13;6.53;;;3.00;;
62790;SDS011;48830;53.426;10.300;2023-05-03T07:35:38;6.82;;;2.72;;
62790;SDS011;48830;53.426;10.300;2023-05-03T07:38:04;6.68;;;2.90;;
62790;SDS011;48830;53.426;10.300;2023-05-03T07:40:29;5.55;;;2.50;;
62790;SDS011;48830;53.426;10.300;2023-05-03T07:42:58;6.13;;;2.50;;
62790;SDS011;48830;53.426;10.300;2023-05-03T07:45:24;9.93;;;3.22;;
62790;SDS011;48830;53.426;10.300;2023-05-03T07:47:50;9.07;;;2.42;;
62790;SDS011;48830;53.426;10.300;2023-05-03T07:50:15;8.52;;;2.35;;
62790;SDS011;48830;53.426;10.300;2023-05-03T07:52:41;8.00;;;2.63;;
62790;SDS011;48830;53.426;10.300;2023-05-03T07:55:07;5.78;;;2.30;;
62790;SDS011;48830;53.426;10.300;2023-05-03T07:57:33;6.57;;;2.67;;
62790;SDS011;48830;53.426;10.300;2023-05-03T07:59:58;5.22;;;2.40;;
62790;SDS011;48830;53.426;10.300;2023-05-03T08:02:24;6.43;;;2.63;;
62790;SDS011;48830;53.426;10.300;2023-05-03T08:04:50;6.90;;;2.35;;
62790;SDS011;48830;53.426;10.300;2023-05-03T08:07:15;6.28;;;2.83;;
62790;SDS011;48830;53.426;10.300;2023-05-03T08:09:43;8.70;;;2.47;;
62790;SDS011;48830;53.426;10.300;2023-05-03T08:12:09;6.75;;;2.60;;
62790;SDS011;48830;53.426;10.300;2023-05-03T08:14:34;7.10;;;2.90;;
62790;SDS011;48830;53.426;10.300;2023-05-03T08:17:01;5.60;;;2.20;;
62790;SDS011;48830;53.426;10.300;2023-05-03T08:19:28;8.18;;;2.28;;
62790;SDS011;48830;53.426;10.300;2023-05-03T08:21:54;5.90;;;2.20;;
62790;SDS011;48830;53.426;10.300;2023-05-03T08:24:20;6.07;;;2.05;;
62790;SDS011;48830;53.426;10.300;2023-05-03T08:26:46;4.63;;;2.10;;
62790;SDS011;48830;53.426;10.300;2023-05-03T08:29:12;5.40;;;2.20;;
62790;SDS011;48830;53.426;10.300;2023-05-03T08:31:38;5.07;;;2.30;;
62790;SDS011;48830;53.426;10.300;2023-05-03T08:34:05;5.22;;;2.33;;
62790;SDS011;48830;53.426;10.300;2023-05-03T08:36:32;6.63;;;1.92;;
62790;SDS011;48830;53.426;10.300;2023-05-03T08:38:59;5.32;;;2.00;;
62790;SDS011;48830;53.426;10.300;2023-05-03T08:41:28;5.25;;;1.70;;
62790;SDS011;48830;53.426;10.300;2023-05-03T08:43:55;5.78;;;1.70;;
62790;SDS011;48830;53.426;10.300;2023-05-03T08:46:21;4.07;;;1.70;;
62790;SDS011;48830;53.426;10.300;2023-05-03T08:48:47;3.17;;;1.50;;
62790;SDS011;48830;53.426;10.300;2023-05-03T08:51:15;2.88;;;1.42;;
62790;SDS011;48830;53.426;10.300;2023-05-03T08:53:41;6.32;;;2.08;;
62790;SDS011;48830;53.426;10.300;2023-05-03T08:56:10;3.38;;;1.33;;
62790;SDS011;48830;53.426;10.300;2023-05-03T08:58:38;2.63;;;1.40;;
62790;SDS011;48830;53.426;10.300;2023-05-03T09:01:04;4.70;;;1.50;;
62790;SDS011;48830;53.426;10.300;2023-05-03T09:03:31;4.97;;;1.38;;
62790;SDS011;48830;53.426;10.300;2023-05-03T09:05:57;2.97;;;1.48;;
62790;SDS011;48830;53.426;10.300;2023-05-03T09:08:29;3.40;;;1.60;;
62790;SDS011;48830;53.426;10.300;2023-05-03T09:10:55;4.78;;;1.70;;
62790;SDS011;48830;53.426;10.300;2023-05-03T09:13:31;9.50;;;1.70;;
62790;SDS011;48830;53.426;10.300;2023-05-03T09:15:57;4.40;;;1.55;;
62790;SDS011;48830;53.426;10.300;2023-05-03T09:18:22;5.22;;;2.00;;
62790;SDS011;48830;53.426;10.300;2023-05-03T09:20:49;2.75;;;1.30;;
62790;SDS011;48830;53.426;10.300;2023-05-03T09:23:27;5.30;;;1.48;;
62790;SDS011;48830;53.426;10.300;2023-05-03T09:26:04;2.67;;;1.30;;
62790;SDS011;48830;53.426;10.300;2023-05-03T09:28:39;4.93;;;1.30;;
62790;SDS011;48830;53.426;10.300;2023-05-03T09:31:06;3.17;;;1.60;;
62790;SDS011;48830;53.426;10.300;2023-05-03T09:33:32;4.85;;;1.80;;
62790;SDS011;48830;53.426;10.300;2023-05-03T09:36:03;4.28;;;1.80;;
62790;SDS011;48830;53.426;10.300;2023-05-03T09:38:30;7.05;;;1.63;;
62790;SDS011;48830;53.426;10.300;2023-05-03T09:40:57;5.00;;;1.73;;
62790;SDS011;48830;53.426;10.300;2023-05-03T09:43:23;3.28;;;1.52;;
62790;SDS011;48830;53.426;10.300;2023-05-03T09:45:49;2.88;;;1.52;;
62790;SDS011;48830;53.426;10.300;2023-05-03T09:48:15;3.05;;;1.55;;
62790;SDS011;48830;53.426;10.300;2023-05-03T09:50:41;4.50;;;1.58;;
62790;SDS011;48830;53.426;10.300;2023-05-03T09:53:07;2.38;;;1.30;;
62790;SDS011;48830;53.426;10.300;2023-05-03T09:55:37;4.10;;;1.90;;
62790;SDS011;48830;53.426;10.300;2023-05-03T09:58:04;3.95;;;1.58;;
62790;SDS011;48830;53.426;10.300;2023-05-03T10:00:38;4.20;;;1.80;;
62790;SDS011;48830;53.426;10.300;2023-05-03T10:03:09;6.25;;;1.80;;
62790;SDS011;48830;53.426;10.300;2023-05-03T10:05:44;4.30;;;1.67;;
62790;SDS011;48830;53.426;10.300;2023-05-03T10:08:11;4.18;;;1.55;;
62790;SDS011;48830;53.426;10.300;2023-05-03T10:10:44;3.90;;;1.45;;
62790;SDS011;48830;53.426;10.300;2023-05-03T10:13:11;3.60;;;1.80;;
62790;SDS011;48830;53.426;10.300;2023-05-03T10:15:38;3.65;;;1.65;;
62790;SDS011;48830;53.426;10.300;2023-05-03T10:18:06;5.63;;;1.52;;
62790;SDS011;48830;53.426;10.300;2023-05-03T10:20:37;3.90;;;1.55;;
62790;SDS011;48830;53.426;10.300;2023-05-03T10:23:07;5.07;;;1.73;;
62790;SDS011;48830;53.426;10.300;2023-05-03T10:25:36;4.53;;;1.60;;
62790;SDS011;48830;53.426;10.300;2023-05-03T10:28:03;5.03;;;1.70;;
62790;SDS011;48830;53.426;10.300;2023-05-03T10:30:36;4.20;;;1.80;;
62790;SDS011;48830;53.426;10.300;2023-05-03T10:35:38;3.72;;;1.63;;
62790;SDS011;48830;53.426;10.300;2023-05-03T10:38:15;7.07;;;2.00;;
62790;SDS011;48830;53.426;10.300;2023-05-03T10:40:44;4.95;;;1.65;;
62790;SDS011;48830;53.426;10.300;2023-05-03T10:45:54;4.65;;;2.00;;
62790;SDS011;48830;53.426;10.300;2023-05-03T10:48:20;10.13;;;1.98;;
62790;SDS011;48830;53.426;10.300;2023-05-03T10:50:47;5.72;;;1.92;;
62790;SDS011;48830;53.426;10.300;2023-05-03T10:56:07;6.00;;;1.90;;
62790;SDS011;48830;53.426;10.300;2023-05-03T10:58:44;4.07;;;1.90;;
62790;SDS011;48830;53.426;10.300;2023-05-03T11:01:11;4.70;;;1.90;;
62790;SDS011;48830;53.426;10.300;2023-05-03T11:03:42;6.30;;;1.95;;
62790;SDS011;48830;53.426;10.300;2023-05-03T11:06:08;3.72;;;1.70;;
62790;SDS011;48830;53.426;10.300;2023-05-03T11:08:34;5.03;;;1.95;;
62790;SDS011;48830;53.426;10.300;2023-05-03T11:11:03;3.17;;;1.83;;
62790;SDS011;48830;53.426;10.300;2023-05-03T11:13:36;3.88;;;1.90;;
62790;SDS011;48830;53.426;10.300;2023-05-03T11:16:02;5.40;;;1.90;;
62790;SDS011;48830;53.426;10.300;2023-05-03T11:18:32;4.57;;;1.77;;
62790;SDS011;48830;53.426;10.300;2023-05-03T11:20:57;5.07;;;2.03;;
62790;SDS011;48830;53.426;10.300;2023-05-03T11:23:25;5.45;;;1.95;;
62790;SDS011;48830;53.426;10.300;2023-05-03T11:25:54;3.15;;;1.70;;
62790;SDS011;48830;53.426;10.300;2023-05-03T11:28:22;3.53;;;1.83;;
62790;SDS011;48830;53.426;10.300;2023-05-03T11:30:50;5.40;;;1.98;;
62790;SDS011;48830;53.426;10.300;2023-05-03T11:33:15;3.97;;;1.85;;
62790;SDS011;48830;53.426;10.300;2023-05-03T11:35:41;4.55;;;1.90;;
62790;SDS011;48830;53.426;10.300;2023-05-03T11:38:07;6.43;;;2.10;;
62790;SDS011;48830;53.426;10.300;2023-05-03T11:40:34;4.43;;;2.03;;
62790;SDS011;48830;53.426;10.300;2023-05-03T11:43:00;4.95;;;1.85;;
62790;SDS011;48830;53.426;10.300;2023-05-03T11:45:30;5.32;;;2.00;;
62790;SDS011;48830;53.426;10.300;2023-05-03T11:47:57;6.85;;;2.05;;
62790;SDS011;48830;53.426;10.300;2023-05-03T11:50:27;6.10;;;2.10;;
62790;SDS011;48830;53.426;10.300;2023-05-03T11:53:15;4.20;;;1.60;;
62790;SDS011;48830;53.426;10.300;2023-05-03T11:55:43;5.20;;;2.00;;
62790;SDS011;48830;53.426;10.300;2023-05-03T11:58:20;4.05;;;2.13;;
62790;SDS011;48830;53.426;10.300;2023-05-03T12:00:56;5.75;;;2.25;;
62790;SDS011;48830;53.426;10.300;2023-05-03T12:03:22;3.92;;;2.10;;
62790;SDS011;48830;53.426;10.300;2023-05-03T12:05:50;5.20;;;2.00;;
62790;SDS011;48830;53.426;10.300;2023-05-03T12:08:19;4.57;;;2.35;;
62790;SDS011;48830;53.426;10.300;2023-05-03T12:10:46;4.53;;;2.15;;
62790;SDS011;48830;53.426;10.300;2023-05-03T12:13:13;9.15;;;2.13;;
62790;SDS011;48830;53.426;10.300;2023-05-03T12:15:38;3.28;;;2.15;;
62790;SDS011;48830;53.426;10.300;2023-05-03T12:18:09;6.10;;;2.10;;
62790;SDS011;48830;53.426;10.300;2023-05-03T12:20:36;4.82;;;1.90;;
62790;SDS011;48830;53.426;10.300;2023-05-03T12:23:03;5.50;;;2.08;;
62790;SDS011;48830;53.426;10.300;2023-05-03T12:25:32;6.20;;;2.30;;
62790;SDS011;48830;53.426;10.300;2023-05-03T12:27:59;9.15;;;2.45;;
62790;SDS011;48830;53.426;10.300;2023-05-03T12:30:27;4.53;;;2.10;;
62790;SDS011;48830;53.426;10.300;2023-05-03T12:32:52;5.65;;;2.03;;
62790;SDS011;48830;53.426;10.300;2023-05-03T12:35:18;6.80;;;2.00;;
62790;SDS011;48830;53.426;10.300;2023-05-03T12:37:45;5.50;;;2.35;;
62790;SDS011;48830;53.426;10.300;2023-05-03T12:40:11;5.15;;;2.20;;
62790;SDS011;48830;53.426;10.300;2023-05-03T12:42:38;4.90;;;2.40;;
62790;SDS011;48830;53.426;10.300;2023-05-03T12:45:07;5.82;;;2.10;;
62790;SDS011;48830;53.426;10.300;2023-05-03T12:47:33;4.90;;;2.17;;
62790;SDS011;48830;53.426;10.300;2023-05-03T12:50:01;5.65;;;2.38;;
62790;SDS011;48830;53.426;10.300;2023-05-03T12:52:27;4.50;;;2.38;;
62790;SDS011;48830;53.426;10.300;2023-05-03T12:54:54;5.15;;;2.60;;
62790;SDS011;48830;53.426;10.300;2023-05-03T12:57:19;5.65;;;2.30;;
62790;SDS011;48830;53.426;10.300;2023-05-03T12:59:45;6.18;;;2.40;;
62790;SDS011;48830;53.426;10.300;2023-05-03T13:02:13;7.20;;;2.58;;
62790;SDS011;48830;53.426;10.300;2023-05-03T13:04:38;6.53;;;2.50;;
62790;SDS011;48830;53.426;10.300;2023-05-03T13:07:04;6.45;;;2.65;;
62790;SDS011;48830;53.426;10.300;2023-05-03T13:09:30;7.22;;;2.90;;
62790;SDS011;48830;53.426;10.300;2023-05-03T13:11:55;5.22;;;2.42;;
62790;SDS011;48830;53.426;10.300;2023-05-03T13:14:21;6.07;;;2.13;;
62790;SDS011;48830;53.426;10.300;2023-05-03T13:16:47;5.00;;;2.28;;
62790;SDS011;48830;53.426;10.300;2023-05-03T13:19:16;6.75;;;2.33;;
62790;SDS011;48830;53.426;10.300;2023-05-03T13:21:41;5.75;;;2.42;;
62790;SDS011;48830;53.426;10.300;2023-05-03T13:24:07;6.78;;;2.58;;
62790;SDS011;48830;53.426;10.300;2023-05-03T13:26:33;5.15;;;2.10;;
62790;SDS011;48830;53.426;10.300;2023-05-03T13:28:59;5.10;;;2.15;;
62790;SDS011;48830;53.426;10.300;2023-05-03T13:31:25;4.50;;;2.15;;
62790;SDS011;48830;53.426;10.300;2023-05-03T13:33:54;6.05;;;2.65;;
62790;SDS011;48830;53.426;10.300;2023-05-03T13:36:21;6.25;;;2.17;;
62790;SDS011;48830;53.426;10.300;2023-05-03T13:38:51;6.20;;;2.45;;
62790;SDS011;48830;53.426;10.300;2023-05-03T13:41:16;5.13;;;2.17;;
62790;SDS011;48830;53.426;10.300;2023-05-03T13:43:42;4.65;;;2.33;;
62790;SDS011;48830;53.426;10.300;2023-05-03T13:46:08;5.55;;;2.45;;
62790;SDS011;48830;53.426;10.300;2023-05-03T13:48:33;5.80;;;2.47;;
62790;SDS011;48830;53.426;10.300;2023-05-03T13:51:00;4.68;;;2.38;;
62790;SDS011;48830;53.426;10.300;2023-05-03T13:53:32;8.07;;;2.33;;
62790;SDS011;48830;53.426;10.300;2023-05-03T13:55:57;4.65;;;2.40;;
62790;SDS011;48830;53.426;10.300;2023-05-03T13:58:23;4.45;;;2.22;;
62790;SDS011;48830;53.426;10.300;2023-05-03T14:00:48;7.72;;;2.97;;
62790;SDS011;48830;53.426;10.300;2023-05-03T14:03:13;5.55;;;2.67;;
62790;SDS011;48830;53.426;10.300;2023-05-03T14:05:39;5.80;;;2.92;;
62790;SDS011;48830;53.426;10.300;2023-05-03T14:08:04;6.68;;;2.40;;
62790;SDS011;48830;53.426;10.300;2023-05-03T14:10:33;6.75;;;2.58;;
62790;SDS011;48830;53.426;10.300;2023-05-03T14:12:59;4.68;;;2.40;;
62790;SDS011;48830;53.426;10.300;2023-05-03T14:15:24;6.28;;;2.78;;
62790;SDS011;48830;53.426;10.300;2023-05-03T14:17:50;7.40;;;2.70;;
62790;SDS011;48830;53.426;10.300;2023-05-03T14:20:15;5.47;;;2.65;;
62790;SDS011;48830;53.426;10.300;2023-05-03T14:22:41;6.68;;;2.58;;
62790;SDS011;48830;53.426;10.300;2023-05-03T14:25:07;5.68;;;2.60;;
62790;SDS011;48830;53.426;10.300;2023-05-03T14:27:33;4.82;;;2.30;;
62790;SDS011;48830;53.426;10.300;2023-05-03T14:29:58;5.55;;;2.53;;
62790;SDS011;48830;53.426;10.300;2023-05-03T14:32:24;6.10;;;2.60;;
62790;SDS011;48830;53.426;10.300;2023-05-03T14:34:51;6.18;;;2.50;;
62790;SDS011;48830;53.426;10.300;2023-05-03T14:37:16;4.68;;;2.28;;
62790;SDS011;48830;53.426;10.300;2023-05-03T14:39:42;6.53;;;2.50;;
62790;SDS011;48830;53.426;10.300;2023-05-03T14:42:08;6.55;;;2.72;;
62790;SDS011;48830;53.426;10.300;2023-05-03T14:44:34;6.40;;;2.70;;
62790;SDS011;48830;53.426;10.300;2023-05-03T14:47:00;5.30;;;2.78;;
62790;SDS011;48830;53.426;10.300;2023-05-03T14:49:25;4.90;;;2.63;;